createdAt,value
2019-06-01T00:00:49.292Z,10.3
2019-06-01T00:01:48.965Z,10.3
2019-06-01T00:02:55.301Z,10.3
2019-06-01T00:03:48.605Z,10.4
2019-06-01T00:04:49.384Z,10.4
2019-06-01T00:05:48.765Z,10.4
2019-06-01T00:06:48.956Z,10.4
2019-06-01T00:07:48.939Z,10.4
2019-06-01T00:08:49.322Z,10.4
2019-06-01T00:09:49.645Z,10.4
2019-06-01T00:10:49.552Z,10.2
2019-06-01T00:11:49.676Z,10.2
2019-06-01T00:12:49.457Z,10.2
2019-06-01T00:13:49.591Z,10.2
2019-06-01T00:14:49.909Z,10.2
2019-06-01T00:15:48.744Z,10.0
2019-06-01T00:16:50.272Z,10.0
2019-06-01T00:17:48.416Z,10.0
2019-06-01T00:18:48.775Z,10.0
2019-06-01T00:19:48.734Z,10.0
2019-06-01T00:21:16.775Z,9.9
2019-06-01T00:21:49.467Z,9.9
2019-06-01T00:22:49.467Z,9.9
2019-06-01T00:23:48.669Z,9.9
2019-06-01T00:24:48.317Z,9.9
2019-06-01T00:25:48.674Z,10.0
2019-06-01T00:26:48.327Z,10.0
2019-06-01T00:27:48.771Z,10.0
2019-06-01T00:28:48.498Z,10.0
2019-06-01T00:29:49.455Z,10.0
2019-06-01T00:30:48.377Z,9.9
2019-06-01T00:33:01.634Z,9.9
2019-06-01T00:34:01.902Z,9.9
2019-06-01T00:35:02.586Z,9.9
2019-06-01T00:36:02.081Z,9.8
2019-06-01T00:37:01.703Z,9.8
2019-06-01T00:38:01.615Z,9.8
2019-06-01T00:39:02.093Z,9.7
2019-06-01T00:40:01.748Z,9.7
2019-06-01T00:41:01.953Z,9.7
2019-06-01T00:42:01.855Z,9.7
2019-06-01T00:43:02.158Z,9.7
2019-06-01T00:44:01.732Z,9.9
2019-06-01T00:45:01.916Z,9.9
2019-06-01T00:46:01.642Z,10.0
2019-06-01T00:47:01.975Z,10.0
2019-06-01T00:48:01.857Z,10.0
2019-06-01T00:49:01.790Z,10.0
2019-06-01T00:50:01.972Z,10.0
2019-06-01T00:51:01.977Z,10.0
2019-06-01T00:52:02.198Z,10.0
2019-06-01T00:53:02.739Z,10.0
2019-06-01T00:54:01.744Z,10.0
2019-06-01T00:55:02.139Z,10.0
2019-06-01T00:56:02.038Z,10.0
2019-06-01T00:57:01.666Z,10.0
2019-06-01T00:58:01.688Z,10.0
2019-06-01T00:59:01.682Z,9.9
2019-06-01T01:00:02.131Z,9.9
2019-06-01T01:01:02.133Z,9.9
2019-06-01T01:02:02.106Z,9.8
2019-06-01T01:03:01.820Z,9.8
2019-06-01T01:04:01.902Z,9.7
2019-06-01T01:05:01.893Z,9.7
2019-06-01T01:06:01.759Z,9.7
2019-06-01T01:07:01.791Z,9.8
2019-06-01T01:08:02.261Z,9.8
2019-06-01T01:09:02.223Z,9.7
2019-06-01T01:10:01.871Z,9.7
2019-06-01T01:11:02.148Z,9.7
2019-06-01T01:12:12.142Z,9.8
2019-06-01T01:13:01.760Z,9.8
2019-06-01T01:14:01.735Z,9.8
2019-06-01T01:15:02.547Z,9.8
2019-06-01T01:16:01.707Z,9.8
2019-06-01T01:17:01.730Z,9.6
2019-06-01T01:18:02.302Z,9.6
2019-06-01T01:19:01.815Z,9.6
2019-06-01T01:20:02.232Z,9.5
2019-06-01T01:21:01.837Z,9.5
2019-06-01T01:22:01.947Z,9.3
2019-06-01T01:23:02.185Z,9.3
2019-06-01T01:24:01.814Z,9.3
2019-06-01T01:25:02.320Z,9.2
2019-06-01T01:26:02.580Z,9.2
2019-06-01T01:27:02.148Z,9.2
2019-06-01T01:28:01.843Z,9.2
2019-06-01T01:29:01.729Z,9.2
2019-06-01T01:30:01.905Z,9.2
2019-06-01T01:31:55.109Z,9.2
2019-06-01T01:32:01.917Z,9.2
2019-06-01T01:33:02.258Z,9.4
2019-06-01T01:34:02.229Z,9.4
2019-06-01T01:35:02.100Z,9.3
2019-06-01T01:36:02.131Z,9.3
2019-06-01T01:37:01.827Z,9.3
2019-06-01T01:38:02.032Z,9.3
2019-06-01T01:39:02.519Z,9.3
2019-06-01T01:40:01.825Z,9.3
2019-06-01T01:41:02.213Z,9.3
2019-06-01T01:42:02.429Z,9.2
2019-06-01T01:43:01.933Z,9.2
2019-06-01T01:44:01.996Z,9.2
2019-06-01T01:45:01.869Z,9.2
2019-06-01T01:46:02.079Z,9.2
2019-06-01T01:47:02.194Z,9.3
2019-06-01T01:48:01.942Z,9.3
2019-06-01T01:49:02.624Z,9.3
2019-06-01T01:50:03.029Z,9.3
2019-06-01T01:51:02.697Z,9.3
2019-06-01T01:52:04.465Z,9.3
2019-06-01T01:53:03.371Z,9.2
2019-06-01T01:54:04.574Z,9.2
2019-06-01T01:55:03.260Z,9.2
2019-06-01T01:56:02.309Z,9.2
2019-06-01T01:57:02.493Z,9.2
2019-06-01T01:58:02.001Z,9.2
2019-06-01T01:59:04.243Z,9.2
2019-06-01T02:00:01.896Z,9.2
2019-06-01T02:01:17.971Z,9.2
2019-06-01T02:02:02.882Z,9.2
2019-06-01T02:03:02.286Z,9.2
2019-06-01T02:04:03.217Z,9.2
2019-06-01T02:05:02.175Z,9.2
2019-06-01T02:06:03.239Z,9.2
2019-06-01T02:07:02.482Z,9.2
2019-06-01T02:08:02.260Z,9.2
2019-06-01T02:09:02.227Z,9.2
2019-06-01T02:10:02.036Z,9.1
2019-06-01T02:11:01.929Z,9.1
2019-06-01T02:12:30.246Z,9.1
2019-06-01T02:13:02.181Z,9.0
2019-06-01T02:14:02.177Z,9.0
2019-06-01T02:15:02.362Z,9.0
2019-06-01T02:16:02.569Z,9.0
2019-06-01T02:17:02.568Z,9.0
2019-06-01T02:18:02.807Z,8.9
2019-06-01T02:19:02.439Z,8.9
2019-06-01T02:20:02.570Z,8.9
2019-06-01T02:21:02.645Z,8.8
2019-06-01T02:22:03.632Z,8.8
2019-06-01T02:23:03.263Z,8.8
2019-06-01T02:24:03.323Z,8.8
2019-06-01T02:25:02.310Z,8.8
2019-06-01T02:26:03.225Z,8.9
2019-06-01T02:27:03.212Z,8.9
2019-06-01T02:28:03.329Z,8.9
2019-06-01T02:29:02.584Z,8.9
2019-06-01T02:30:03.304Z,8.9
2019-06-01T02:31:02.175Z,8.8
2019-06-01T02:32:03.776Z,8.8
2019-06-01T02:33:02.380Z,8.8
2019-06-01T02:34:03.497Z,8.8
2019-06-01T02:35:02.496Z,8.8
2019-06-01T02:36:03.056Z,8.8
2019-06-01T02:37:02.356Z,8.8
2019-06-01T02:38:03.199Z,8.8
2019-06-01T02:39:03.181Z,8.8
2019-06-01T02:40:03.169Z,8.8
2019-06-01T02:41:12.343Z,8.8
2019-06-01T02:42:03.330Z,8.8
2019-06-01T02:43:03.384Z,8.8
2019-06-01T02:44:03.681Z,8.8
2019-06-01T02:45:03.531Z,8.8
2019-06-01T02:46:02.611Z,8.8
2019-06-01T02:47:03.858Z,8.8
2019-06-01T02:48:03.664Z,8.8
2019-06-01T02:49:04.052Z,8.8
2019-06-01T02:50:04.497Z,8.8
2019-06-01T02:53:11.936Z,8.8
2019-06-01T02:54:12.018Z,8.9
2019-06-01T02:55:12.333Z,8.9
2019-06-01T02:56:12.056Z,8.9
2019-06-01T02:57:11.877Z,8.9
2019-06-01T02:58:12.546Z,8.8
2019-06-01T02:59:11.841Z,8.8
2019-06-01T03:00:12.036Z,8.8
2019-06-01T03:01:11.885Z,8.7
2019-06-01T03:02:14.844Z,8.7
2019-06-01T03:03:12.227Z,8.7
2019-06-01T03:04:12.251Z,8.6
2019-06-01T03:05:12.119Z,8.6
2019-06-01T03:06:12.221Z,8.5
2019-06-01T03:07:12.108Z,8.5
2019-06-01T03:08:11.855Z,8.5
2019-06-01T03:09:12.233Z,8.4
2019-06-01T03:10:11.872Z,8.4
2019-06-01T03:11:12.291Z,8.4
2019-06-01T03:12:11.855Z,8.4
2019-06-01T03:13:11.889Z,8.4
2019-06-01T03:14:11.956Z,8.4
2019-06-01T03:15:11.883Z,8.4
2019-06-01T03:16:12.128Z,8.4
2019-06-01T03:17:12.327Z,8.4
2019-06-01T03:18:12.267Z,8.4
2019-06-01T03:19:12.239Z,8.4
2019-06-01T03:20:12.150Z,8.4
2019-06-01T03:21:11.993Z,8.7
2019-06-01T03:22:12.144Z,8.7
2019-06-01T03:23:12.259Z,8.7
2019-06-01T03:24:13.156Z,8.7
2019-06-01T03:25:12.332Z,8.7
2019-06-01T03:26:12.442Z,8.7
2019-06-01T03:27:28.210Z,8.7
2019-06-01T03:28:12.411Z,8.7
2019-06-01T03:29:12.667Z,8.7
2019-06-01T03:30:15.217Z,8.7
2019-06-01T03:31:13.258Z,8.7
2019-06-01T03:32:28.985Z,8.7
2019-06-01T03:33:14.029Z,8.7
2019-06-01T03:34:13.433Z,8.7
2019-06-01T03:35:13.053Z,8.7
2019-06-01T03:36:13.079Z,8.7
2019-06-01T03:37:13.375Z,8.9
2019-06-01T03:38:12.344Z,8.9
2019-06-01T03:39:13.012Z,8.8
2019-06-01T03:40:15.805Z,8.8
2019-06-01T03:41:12.377Z,8.8
2019-06-01T03:42:12.257Z,8.9
2019-06-01T03:43:12.059Z,8.9
2019-06-01T03:44:12.910Z,9.0
2019-06-01T03:45:12.747Z,9.0
2019-06-01T03:46:13.041Z,9.0
2019-06-01T03:48:53.440Z,8.9
2019-06-01T03:49:03.630Z,8.9
2019-06-01T03:50:02.972Z,9.0
2019-06-01T03:51:03.569Z,9.0
2019-06-01T03:52:02.765Z,9.0
2019-06-01T03:53:02.207Z,9.0
2019-06-01T03:54:05.070Z,9.0
2019-06-01T03:55:03.664Z,8.9
2019-06-01T03:56:03.280Z,8.9
2019-06-01T03:57:03.674Z,8.9
2019-06-01T03:58:02.949Z,8.9
2019-06-01T03:59:03.069Z,8.9
2019-06-01T04:00:03.272Z,8.9
2019-06-01T04:01:03.099Z,8.9
2019-06-01T04:02:02.954Z,8.8
2019-06-01T04:03:02.911Z,8.8
2019-06-01T04:04:03.019Z,8.8
2019-06-01T04:05:03.545Z,8.8
2019-06-01T04:08:07.527Z,8.8
2019-06-01T04:09:07.706Z,8.8
2019-06-01T04:10:07.974Z,8.7
2019-06-01T04:11:07.767Z,8.7
2019-06-01T04:12:07.651Z,8.7
2019-06-01T04:13:07.526Z,8.7
2019-06-01T04:14:07.720Z,8.7
2019-06-01T04:15:10.207Z,8.6
2019-06-01T04:16:07.898Z,8.6
2019-06-01T04:17:08.137Z,8.6
2019-06-01T04:19:21.085Z,8.6
2019-06-01T04:20:20.429Z,8.7
2019-06-01T04:21:20.605Z,8.7
2019-06-01T04:22:20.130Z,8.7
2019-06-01T04:23:20.146Z,8.7
2019-06-01T04:24:20.128Z,8.7
2019-06-01T04:25:20.065Z,8.7
2019-06-01T04:26:20.136Z,8.7
2019-06-01T04:27:20.546Z,8.9
2019-06-01T04:28:20.100Z,8.9
2019-06-01T04:29:22.523Z,8.9
2019-06-01T04:30:21.280Z,9.2
2019-06-01T04:31:21.695Z,9.2
2019-06-01T04:32:20.199Z,9.4
2019-06-01T04:33:20.178Z,9.4
2019-06-01T04:34:20.108Z,9.4
2019-06-01T04:35:20.642Z,9.8
2019-06-01T04:36:20.718Z,9.8
2019-06-01T04:37:20.311Z,9.8
2019-06-01T04:38:20.572Z,9.8
2019-06-01T04:39:20.246Z,9.8
2019-06-01T04:40:20.429Z,10.1
2019-06-01T04:41:20.668Z,10.1
2019-06-01T04:42:20.173Z,10.1
2019-06-01T04:43:20.384Z,10.3
2019-06-01T04:44:21.757Z,10.3
2019-06-01T04:45:20.194Z,10.7
2019-06-01T04:46:20.186Z,10.7
2019-06-01T04:47:20.204Z,10.7
2019-06-01T04:48:20.366Z,11.0
2019-06-01T04:49:22.058Z,11.0
2019-06-01T04:50:20.423Z,11.2
2019-06-01T04:51:20.184Z,11.2
2019-06-01T04:52:20.249Z,11.2
2019-06-01T04:53:20.399Z,11.6
2019-06-01T04:54:20.526Z,11.6
2019-06-01T04:55:20.431Z,12.1
2019-06-01T04:56:20.430Z,12.1
2019-06-01T04:57:20.415Z,12.1
2019-06-01T04:58:20.335Z,12.8
2019-06-01T04:59:20.468Z,12.8
2019-06-01T05:00:26.051Z,13.2
2019-06-01T05:01:20.638Z,13.2
2019-06-01T05:02:20.281Z,13.2
2019-06-01T05:03:20.327Z,13.2
2019-06-01T05:04:21.314Z,13.2
2019-06-01T05:05:20.689Z,13.4
2019-06-01T05:06:20.741Z,13.4
2019-06-01T05:07:20.211Z,13.4
2019-06-01T05:08:20.211Z,13.3
2019-06-01T05:09:20.383Z,13.3
2019-06-01T05:10:20.721Z,13.3
2019-06-01T05:11:20.645Z,13.3
2019-06-01T05:12:20.443Z,13.3
2019-06-01T05:13:20.743Z,13.4
2019-06-01T05:14:48.675Z,13.4
2019-06-01T05:15:20.578Z,13.4
2019-06-01T05:16:20.499Z,13.7
2019-06-01T05:17:20.300Z,13.7
2019-06-01T05:18:20.832Z,13.7
2019-06-01T05:19:20.340Z,13.7
2019-06-01T05:20:20.803Z,13.7
2019-06-01T05:21:20.394Z,14.1
2019-06-01T05:22:20.772Z,14.1
2019-06-01T05:23:20.662Z,14.5
2019-06-01T05:24:20.239Z,14.5
2019-06-01T05:25:21.020Z,14.5
2019-06-01T05:26:20.529Z,14.7
2019-06-01T05:27:20.512Z,14.7
2019-06-01T05:28:20.522Z,14.8
2019-06-01T05:29:20.428Z,14.8
2019-06-01T05:30:20.411Z,14.8
2019-06-01T05:31:24.914Z,15.1
2019-06-01T05:32:20.345Z,15.1
2019-06-01T05:33:29.490Z,15.4
2019-06-01T05:34:20.461Z,15.4
2019-06-01T05:35:20.708Z,15.4
2019-06-01T05:36:20.571Z,15.6
2019-06-01T05:37:20.392Z,15.6
2019-06-01T05:38:20.365Z,16.0
2019-06-01T05:39:20.596Z,16.0
2019-06-01T05:40:21.065Z,16.0
2019-06-01T05:41:20.681Z,16.4
2019-06-01T05:42:20.558Z,16.4
2019-06-01T05:43:21.303Z,16.4
2019-06-01T05:44:20.580Z,16.6
2019-06-01T05:45:22.408Z,16.6
2019-06-01T05:46:20.708Z,16.8
2019-06-01T05:47:20.835Z,16.8
2019-06-01T05:48:23.642Z,16.8
2019-06-01T05:49:20.728Z,17.2
2019-06-01T05:50:25.788Z,17.2
2019-06-01T05:51:20.853Z,17.3
2019-06-01T05:52:20.367Z,17.3
2019-06-01T05:53:20.832Z,17.3
2019-06-01T05:54:20.462Z,17.5
2019-06-01T05:55:20.860Z,17.5
2019-06-01T05:56:20.665Z,17.4
2019-06-01T05:57:20.982Z,17.4
2019-06-01T05:58:21.715Z,17.4
2019-06-01T05:59:20.392Z,17.4
2019-06-01T06:00:21.260Z,17.4
2019-06-01T06:01:22.760Z,18.0
2019-06-01T06:02:21.622Z,18.0
2019-06-01T06:03:22.286Z,18.0
2019-06-01T06:04:21.458Z,18.3
2019-06-01T06:05:20.654Z,18.3
2019-06-01T06:06:20.359Z,18.4
2019-06-01T06:07:21.532Z,18.4
2019-06-01T06:08:22.072Z,18.4
2019-06-01T06:09:20.843Z,18.7
2019-06-01T06:10:20.771Z,18.7
2019-06-01T06:11:21.214Z,18.7
2019-06-01T06:12:21.605Z,18.9
2019-06-01T06:13:21.603Z,18.9
2019-06-01T06:14:22.528Z,19.0
2019-06-01T06:15:21.774Z,19.0
2019-06-01T06:16:22.469Z,19.0
2019-06-01T06:17:21.647Z,19.2
2019-06-01T06:18:22.425Z,19.2
2019-06-01T06:19:22.277Z,19.3
2019-06-01T06:20:20.549Z,19.3
2019-06-01T06:21:20.598Z,19.3
2019-06-01T06:22:20.447Z,19.6
2019-06-01T06:23:21.086Z,19.6
2019-06-01T06:24:22.403Z,20.0
2019-06-01T06:25:20.802Z,20.0
2019-06-01T06:26:22.522Z,20.0
2019-06-01T06:27:20.672Z,20.1
2019-06-01T06:28:21.516Z,20.1
2019-06-01T06:29:20.943Z,20.2
2019-06-01T06:30:21.011Z,20.2
2019-06-01T06:31:21.334Z,20.2
2019-06-01T06:32:21.339Z,20.5
2019-06-01T06:33:21.444Z,20.5
2019-06-01T06:34:21.651Z,20.7
2019-06-01T06:35:21.531Z,20.7
2019-06-01T06:36:21.772Z,20.7
2019-06-01T06:37:21.874Z,20.8
2019-06-01T06:38:41.066Z,20.8
2019-06-01T06:39:20.402Z,20.8
2019-06-01T06:40:22.132Z,20.8
2019-06-01T06:41:20.434Z,20.8
2019-06-01T06:42:20.513Z,20.6
2019-06-01T06:43:27.554Z,20.6
2019-06-01T06:44:20.674Z,20.6
2019-06-01T06:45:20.742Z,20.9
2019-06-01T06:46:20.875Z,20.9
2019-06-01T06:47:21.332Z,21.5
2019-06-01T06:48:21.273Z,21.5
2019-06-01T06:50:33.627Z,21.7
2019-06-01T06:51:34.405Z,21.7
2019-06-01T06:52:33.759Z,21.6
2019-06-01T06:53:35.145Z,21.6
2019-06-01T06:54:33.935Z,21.6
2019-06-01T06:55:33.653Z,22.1
2019-06-01T06:56:33.881Z,22.1
2019-06-01T06:57:33.304Z,22.5
2019-06-01T06:58:33.593Z,22.5
2019-06-01T06:59:34.008Z,22.5
2019-06-01T07:00:33.407Z,22.6
2019-06-01T07:01:33.916Z,22.6
2019-06-01T07:02:34.212Z,22.8
2019-06-01T07:03:34.103Z,22.8
2019-06-01T07:04:33.704Z,22.8
2019-06-01T07:05:33.299Z,22.4
2019-06-01T07:06:33.862Z,22.4
2019-06-01T07:07:33.674Z,22.6
2019-06-01T07:08:36.098Z,22.6
2019-06-01T07:09:33.378Z,22.6
2019-06-01T07:10:33.625Z,23.0
2019-06-01T07:11:33.817Z,23.0
2019-06-01T07:12:33.999Z,22.7
2019-06-01T07:13:33.325Z,22.7
2019-06-01T07:14:34.116Z,22.7
2019-06-01T07:15:34.220Z,22.6
2019-06-01T07:16:34.255Z,22.6
2019-06-01T07:17:33.763Z,22.4
2019-06-01T07:18:34.253Z,22.4
2019-06-01T07:19:33.273Z,22.4
2019-06-01T07:20:33.395Z,22.4
2019-06-01T07:21:33.975Z,22.4
2019-06-01T07:22:33.825Z,22.4
2019-06-01T07:23:33.317Z,22.4
2019-06-01T07:24:33.710Z,22.4
2019-06-01T07:25:34.496Z,23.9
2019-06-01T07:26:34.125Z,23.9
2019-06-01T07:27:33.421Z,23.9
2019-06-01T07:28:33.722Z,23.9
2019-06-01T07:29:33.491Z,23.9
2019-06-01T07:30:49.431Z,24.2
2019-06-01T07:31:33.791Z,24.2
2019-06-01T07:32:34.264Z,24.2
2019-06-01T07:33:33.352Z,24.6
2019-06-01T07:44:22.863Z,24.6
2019-06-01T07:45:21.264Z,24.6
2019-06-01T07:46:22.692Z,24.3
2019-06-01T07:47:20.873Z,24.3
2019-06-01T07:48:21.374Z,24.4
2019-06-01T07:49:21.107Z,24.4
2019-06-01T07:50:21.875Z,24.4
2019-06-01T07:51:21.116Z,24.3
2019-06-01T07:52:22.238Z,24.3
2019-06-01T07:53:20.979Z,24.2
2019-06-01T07:54:49.342Z,24.2
2019-06-01T07:55:21.472Z,24.2
2019-06-01T07:56:20.706Z,24.1
2019-06-01T07:57:21.614Z,24.1
2019-06-01T07:58:21.013Z,24.1
2019-06-01T07:59:21.331Z,24.1
2019-06-01T08:00:22.309Z,24.1
2019-06-01T08:01:22.761Z,24.1
2019-06-01T08:02:23.283Z,24.1
2019-06-01T08:03:22.423Z,24.1
2019-06-01T08:04:22.423Z,24.1
2019-06-01T08:05:25.010Z,24.1
2019-06-01T08:06:21.993Z,24.2
2019-06-01T08:07:22.896Z,24.2
2019-06-01T08:08:22.128Z,24.3
2019-06-01T08:09:22.252Z,24.3
2019-06-01T08:10:21.331Z,24.3
2019-06-01T08:11:21.297Z,24.2
2019-06-01T08:12:21.234Z,24.2
2019-06-01T08:13:21.412Z,24.2
2019-06-01T08:14:22.453Z,24.4
2019-06-01T08:15:21.624Z,24.4
2019-06-01T08:16:21.428Z,24.2
2019-06-01T08:17:21.964Z,24.2
2019-06-01T08:18:21.871Z,24.2
2019-06-01T08:19:22.029Z,24.5
2019-06-01T08:20:21.906Z,24.5
2019-06-01T08:21:21.811Z,24.7
2019-06-01T08:22:21.899Z,24.7
2019-06-01T08:23:21.864Z,24.7
2019-06-01T08:24:22.197Z,24.3
2019-06-01T08:25:22.060Z,24.3
2019-06-01T08:26:22.195Z,24.3
2019-06-01T08:27:20.831Z,24.3
2019-06-01T08:28:20.894Z,24.3
2019-06-01T08:29:20.822Z,24.8
2019-06-01T08:30:22.496Z,24.8
2019-06-01T08:31:22.416Z,24.6
2019-06-01T08:32:22.559Z,24.6
2019-06-01T08:33:24.743Z,24.6
2019-06-01T08:34:21.185Z,24.4
2019-06-01T08:35:20.725Z,24.4
2019-06-01T08:36:20.778Z,24.7
2019-06-01T08:37:20.853Z,24.7
2019-06-01T08:38:21.058Z,24.7
2019-06-01T08:39:20.919Z,24.9
2019-06-01T08:40:21.346Z,24.9
2019-06-01T08:41:21.002Z,24.9
2019-06-01T08:42:21.022Z,24.9
2019-06-01T08:43:20.795Z,24.9
2019-06-01T08:44:20.917Z,25.4
2019-06-01T08:45:21.310Z,25.4
2019-06-01T08:46:20.764Z,25.4
2019-06-01T08:47:21.219Z,25.4
2019-06-01T08:48:21.263Z,25.4
2019-06-01T08:49:20.871Z,25.2
2019-06-01T08:50:20.955Z,25.2
2019-06-01T08:51:20.871Z,25.2
2019-06-01T08:52:21.315Z,25.0
2019-06-01T08:53:20.894Z,25.0
2019-06-01T08:54:21.113Z,23.6
2019-06-01T08:55:20.915Z,23.6
2019-06-01T08:56:22.028Z,23.6
2019-06-01T08:57:21.134Z,23.2
2019-06-01T08:58:20.940Z,23.2
2019-06-01T08:59:21.320Z,23.2
2019-06-01T09:00:20.945Z,23.2
2019-06-01T09:01:21.149Z,23.2
2019-06-01T09:02:21.325Z,23.8
2019-06-01T09:03:21.271Z,23.8
2019-06-01T09:04:21.387Z,23.6
2019-06-01T09:05:24.358Z,23.6
2019-06-01T09:06:20.874Z,23.6
2019-06-01T09:07:21.511Z,23.1
2019-06-01T09:08:23.767Z,23.1
2019-06-01T09:09:21.482Z,23.3
2019-06-01T09:10:20.923Z,23.3
2019-06-01T09:11:24.976Z,23.3
2019-06-01T09:12:20.873Z,23.7
2019-06-01T09:13:20.902Z,23.7
2019-06-01T09:14:21.082Z,23.7
2019-06-01T09:15:21.203Z,23.6
2019-06-01T09:16:21.254Z,23.6
2019-06-01T09:17:21.639Z,23.6
2019-06-01T09:18:21.038Z,23.6
2019-06-01T09:19:21.127Z,23.6
2019-06-01T09:20:20.998Z,24.3
2019-06-01T09:21:21.382Z,24.3
2019-06-01T09:22:21.416Z,24.3
2019-06-01T09:23:21.344Z,24.3
2019-06-01T09:24:21.079Z,24.3
2019-06-01T09:25:20.994Z,24.9
2019-06-01T09:26:20.839Z,24.9
2019-06-01T09:27:20.926Z,25.4
2019-06-01T09:28:20.973Z,25.4
2019-06-01T09:29:49.678Z,25.4
2019-06-01T09:30:20.928Z,25.2
2019-06-01T09:31:21.118Z,25.2
2019-06-01T09:32:21.009Z,25.6
2019-06-01T09:33:20.923Z,25.6
2019-06-01T09:34:21.193Z,25.6
2019-06-01T09:35:20.953Z,25.7
2019-06-01T09:36:21.221Z,25.7
2019-06-01T09:37:20.965Z,25.7
2019-06-01T09:38:21.575Z,25.7
2019-06-01T09:39:21.373Z,25.7
2019-06-01T09:40:21.444Z,26.1
2019-06-01T09:41:22.258Z,26.1
2019-06-01T09:42:21.334Z,26.2
2019-06-01T09:43:21.458Z,26.2
2019-06-01T09:44:21.539Z,26.2
2019-06-01T09:45:21.015Z,25.9
2019-06-01T09:46:20.990Z,25.9
2019-06-01T09:47:21.289Z,25.9
2019-06-01T09:48:21.247Z,25.3
2019-06-01T09:50:13.789Z,25.3
2019-06-01T09:50:21.539Z,25.3
2019-06-01T09:51:21.894Z,26.0
2019-06-01T09:52:21.548Z,26.0
2019-06-01T09:53:21.905Z,25.8
2019-06-01T09:54:21.778Z,25.8
2019-06-01T09:55:21.919Z,26.2
2019-06-01T09:56:21.496Z,26.2
2019-06-01T09:57:21.663Z,26.2
2019-06-01T09:58:21.649Z,25.8
2019-06-01T09:59:21.582Z,25.8
2019-06-01T10:01:34.990Z,26.1
2019-06-01T10:02:36.112Z,26.1
2019-06-01T10:03:36.490Z,26.1
2019-06-01T10:04:34.991Z,26.1
2019-06-01T10:05:34.929Z,26.6
2019-06-01T10:06:36.603Z,26.6
2019-06-01T10:07:35.054Z,26.6
2019-06-01T10:08:36.168Z,27.0
2019-06-01T10:09:35.728Z,27.0
2019-06-01T10:10:35.955Z,26.5
2019-06-01T10:11:38.116Z,26.5
2019-06-01T10:12:35.961Z,26.5
2019-06-01T10:13:36.333Z,26.1
2019-06-01T10:14:36.150Z,26.1
2019-06-01T10:15:34.938Z,26.2
2019-06-01T10:16:34.972Z,26.2
2019-06-01T10:17:36.966Z,26.2
2019-06-01T10:18:35.366Z,26.1
2019-06-01T10:19:34.763Z,26.1
2019-06-01T10:20:34.885Z,25.4
2019-06-01T10:21:36.137Z,25.4
2019-06-01T10:22:35.221Z,25.4
2019-06-01T10:23:36.532Z,24.8
2019-06-01T10:24:35.119Z,24.8
2019-06-01T10:25:36.369Z,24.7
2019-06-01T10:26:35.703Z,24.7
2019-06-01T10:27:34.857Z,24.7
2019-06-01T10:28:35.708Z,24.8
2019-06-01T10:29:36.651Z,24.8
2019-06-01T10:30:35.800Z,24.8
2019-06-01T10:31:39.690Z,24.6
2019-06-01T10:32:35.673Z,24.6
2019-06-01T10:33:35.049Z,24.6
2019-06-01T10:34:35.634Z,24.6
2019-06-01T10:35:35.261Z,24.6
2019-06-01T10:36:35.775Z,24.6
2019-06-01T10:37:35.380Z,24.6
2019-06-01T10:38:35.168Z,24.4
2019-06-01T10:39:35.337Z,24.4
2019-06-01T10:40:35.391Z,24.4
2019-06-01T10:41:37.433Z,25.2
2019-06-01T10:42:35.831Z,25.2
2019-06-01T10:43:35.609Z,25.2
2019-06-01T10:44:37.922Z,25.2
2019-06-01T10:45:35.766Z,25.2
2019-06-01T10:46:36.001Z,25.5
2019-06-01T10:47:35.880Z,25.5
2019-06-01T10:48:36.122Z,25.0
2019-06-01T10:49:35.899Z,25.0
2019-06-01T10:50:36.589Z,25.0
2019-06-01T10:51:36.190Z,24.8
2019-06-01T10:52:36.202Z,24.8
2019-06-01T10:53:36.296Z,25.0
2019-06-01T10:54:36.109Z,25.0
2019-06-01T10:55:36.099Z,25.0
2019-06-01T10:56:36.225Z,25.2
2019-06-01T10:57:36.605Z,25.2
2019-06-01T10:58:49.623Z,25.2
2019-06-01T10:59:34.799Z,25.8
2019-06-01T11:00:39.795Z,25.8
2019-06-01T11:01:35.887Z,25.6
2019-06-01T11:02:36.572Z,25.6
2019-06-01T11:03:34.790Z,25.6
2019-06-01T11:04:35.133Z,25.3
2019-06-01T11:05:36.642Z,25.3
2019-06-01T11:06:40.230Z,25.9
2019-06-01T11:07:34.850Z,25.9
2019-06-01T11:08:35.582Z,25.9
2019-06-01T11:09:35.123Z,26.6
2019-06-01T11:10:34.986Z,26.6
2019-06-01T11:11:37.298Z,27.1
2019-06-01T11:12:35.351Z,27.1
2019-06-01T11:13:35.367Z,27.1
2019-06-01T11:14:35.433Z,26.9
2019-06-01T11:15:35.475Z,26.9
2019-06-01T11:16:35.193Z,26.6
2019-06-01T11:17:34.961Z,26.6
2019-06-01T11:18:35.307Z,26.6
2019-06-01T11:19:35.337Z,26.4
2019-06-01T11:20:35.282Z,26.4
2019-06-01T11:23:43.659Z,26.4
2019-06-01T11:24:41.576Z,26.4
2019-06-01T11:25:41.661Z,26.4
2019-06-01T11:26:41.815Z,27.4
2019-06-01T11:27:41.891Z,27.4
2019-06-01T11:28:42.240Z,27.4
2019-06-01T11:29:47.661Z,27.4
2019-06-01T11:30:41.834Z,27.4
2019-06-01T11:31:42.133Z,26.8
2019-06-01T11:32:43.140Z,26.8
2019-06-01T11:33:42.216Z,26.8
2019-06-01T11:34:42.317Z,26.4
2019-06-01T11:35:41.441Z,26.4
2019-06-01T11:36:56.717Z,26.4
2019-06-01T11:37:40.932Z,26.4
2019-06-01T11:38:42.422Z,26.4
2019-06-01T11:39:42.564Z,26.2
2019-06-01T11:40:40.978Z,26.2
2019-06-01T11:41:41.040Z,26.2
2019-06-01T11:42:41.214Z,26.0
2019-06-01T11:43:42.723Z,26.0
2019-06-01T11:44:40.829Z,25.8
2019-06-01T11:45:41.326Z,25.8
2019-06-01T11:46:41.109Z,25.8
2019-06-01T11:47:41.391Z,25.7
2019-06-01T11:48:41.419Z,25.7
2019-06-01T11:49:41.334Z,25.2
2019-06-01T11:50:41.233Z,25.2
2019-06-01T11:51:41.464Z,25.2
2019-06-01T11:52:41.196Z,24.4
2019-06-01T11:53:41.505Z,24.4
2019-06-01T11:54:41.196Z,24.5
2019-06-01T11:55:41.338Z,24.5
2019-06-01T11:56:41.397Z,24.5
2019-06-01T11:57:41.528Z,24.3
2019-06-01T11:58:41.411Z,24.3
2019-06-01T11:59:41.620Z,24.1
2019-06-01T12:00:41.500Z,24.1
2019-06-01T12:01:41.723Z,24.1
2019-06-01T12:02:41.732Z,24.2
2019-06-01T12:03:41.767Z,24.2
2019-06-01T12:04:41.954Z,24.2
2019-06-01T12:05:42.109Z,24.2
2019-06-01T12:06:41.933Z,24.2
2019-06-01T12:07:41.956Z,24.1
2019-06-01T12:08:42.119Z,24.1
2019-06-01T12:09:41.857Z,24.1
2019-06-01T12:10:41.046Z,24.4
2019-06-01T12:11:42.128Z,24.4
2019-06-01T12:12:42.293Z,24.5
2019-06-01T12:13:42.233Z,24.5
2019-06-01T12:14:42.612Z,24.5
2019-06-01T12:15:42.237Z,24.7
2019-06-01T12:16:40.930Z,24.7
2019-06-01T12:17:42.854Z,25.0
2019-06-01T12:18:40.931Z,25.0
2019-06-01T12:19:40.957Z,25.0
2019-06-01T12:20:40.976Z,25.2
2019-06-01T12:21:41.264Z,25.2
2019-06-01T12:22:40.930Z,25.1
2019-06-01T12:23:41.463Z,25.1
2019-06-01T12:24:40.993Z,25.1
2019-06-01T12:25:42.114Z,25.0
2019-06-01T12:26:41.352Z,25.0
2019-06-01T12:27:41.517Z,24.6
2019-06-01T12:28:41.535Z,24.6
2019-06-01T12:29:41.456Z,24.6
2019-06-01T12:30:41.580Z,24.6
2019-06-01T12:31:41.695Z,24.6
2019-06-01T12:32:41.890Z,24.8
2019-06-01T12:33:42.007Z,24.8
2019-06-01T12:34:41.957Z,24.8
2019-06-01T12:35:41.978Z,24.9
2019-06-01T12:36:42.637Z,24.9
2019-06-01T12:37:57.274Z,24.9
2019-06-01T12:38:41.959Z,24.9
2019-06-01T12:39:42.275Z,24.9
2019-06-01T12:40:41.377Z,25.1
2019-06-01T12:41:41.502Z,25.1
2019-06-01T12:42:41.515Z,25.1
2019-06-01T12:43:41.507Z,24.8
2019-06-01T12:44:41.654Z,24.8
2019-06-01T12:45:41.610Z,24.8
2019-06-01T12:46:41.738Z,24.8
2019-06-01T12:54:14.385Z,24.8
2019-06-01T12:54:27.062Z,24.8
2019-06-01T12:55:28.192Z,25.0
2019-06-01T12:56:28.187Z,25.2
2019-06-01T12:57:28.138Z,25.2
2019-06-01T12:58:28.339Z,25.5
2019-06-01T12:59:28.257Z,25.5
2019-06-01T13:00:28.465Z,25.5
2019-06-01T13:01:28.163Z,25.7
2019-06-01T13:02:30.560Z,25.7
2019-06-01T13:03:28.102Z,26.3
2019-06-01T13:04:28.388Z,26.3
2019-06-01T13:05:28.354Z,26.3
2019-06-01T13:06:28.143Z,26.4
2019-06-01T13:07:28.547Z,26.4
2019-06-01T13:08:28.524Z,24.9
2019-06-01T13:09:28.358Z,24.9
2019-06-01T13:10:28.128Z,24.9
2019-06-01T13:11:28.577Z,24.8
2019-06-01T13:14:16.133Z,24.8
2019-06-01T13:15:17.162Z,25.0
2019-06-01T13:16:17.194Z,25.0
2019-06-01T13:17:17.257Z,25.0
2019-06-01T13:18:17.385Z,25.0
2019-06-01T13:19:16.954Z,24.9
2019-06-01T13:20:16.944Z,24.9
2019-06-01T13:21:17.410Z,24.8
2019-06-01T13:22:17.101Z,24.8
2019-06-01T13:23:17.411Z,24.8
2019-06-01T13:25:30.381Z,24.7
2019-06-01T13:26:30.585Z,24.7
2019-06-01T13:27:30.380Z,24.7
2019-06-01T13:28:37.749Z,24.7
2019-06-01T13:29:30.564Z,25.8
2019-06-01T13:30:30.246Z,25.8
2019-06-01T13:31:30.299Z,25.6
2019-06-01T13:32:30.220Z,25.6
2019-06-01T13:33:30.653Z,25.6
2019-06-01T13:34:33.802Z,25.2
2019-06-01T13:35:46.927Z,25.2
2019-06-01T13:36:30.672Z,25.3
2019-06-01T13:37:30.708Z,25.3
2019-06-01T13:38:30.235Z,25.3
2019-06-01T13:39:30.295Z,25.4
2019-06-01T13:40:30.644Z,25.4
2019-06-01T13:41:30.802Z,25.6
2019-06-01T13:42:30.748Z,25.6
2019-06-01T13:43:30.458Z,25.6
2019-06-01T13:44:30.331Z,25.9
2019-06-01T13:45:30.239Z,25.9
2019-06-01T13:46:30.367Z,26.4
2019-06-01T13:47:30.468Z,26.4
2019-06-01T13:48:30.680Z,26.4
2019-06-01T13:49:30.642Z,26.6
2019-06-01T13:50:30.264Z,26.6
2019-06-01T13:51:30.324Z,26.1
2019-06-01T13:52:30.769Z,26.1
2019-06-01T13:53:30.311Z,26.1
2019-06-01T13:54:30.314Z,26.7
2019-06-01T13:55:30.251Z,26.7
2019-06-01T13:56:30.451Z,26.7
2019-06-01T13:57:30.295Z,26.8